Time;durP1;ratioP1;P1;durP2;ratioP2;P2;SDS_P1;SDS_P2;PMS_P1;PMS_P2;Temp;Humidity;BMP_temperature;BMP_pressure;BME280_temperature;BME280_humidity;BME280_pressure;Samples;Min_cycle;Max_cycle;Signal;HPM_P1;HPM_P2
2022/07/15 00:01:02;;;;;;;;;;;12.80;99.90;;;;;;5016216;28;19916;-72
2022/07/15 00:03:28;;;;;;;;;;;12.70;99.90;;;;;;5028026;28;19932;-72
2022/07/15 00:05:54;;;;;;;;;;;12.80;99.90;;;;;;5015511;28;19921;-72
2022/07/15 00:08:19;;;;;;;;;;;12.70;99.90;;;;;;5028160;28;19967;-72
2022/07/15 00:10:45;;;;;;;;;;;12.70;99.90;;;;;;5024644;28;19925;-72
2022/07/15 00:13:10;;;;;;;;;;;12.70;99.90;;;;;;5023128;28;19974;-72
2022/07/15 00:15:36;;;;;;;;;;;12.60;99.90;;;;;;5012729;28;19924;-72
2022/07/15 00:18:03;;;;;;;;;;;12.60;99.90;;;;;;5019300;28;19924;-72
2022/07/15 00:20:36;;;;;;;;;;;12.60;99.90;;;;;;5020061;28;19917;-72
2022/07/15 00:23:05;;;;;;;;;;;12.60;99.90;;;;;;5015032;28;19917;-72
2022/07/15 00:25:31;;;;;;;;;;;12.70;99.90;;;;;;5003180;28;19921;-72
2022/07/15 00:27:58;;;;;;;;;;;12.60;99.90;;;;;;5029055;28;19971;-72
2022/07/15 00:30:27;;;;;;;;;;;12.70;99.90;;;;;;5022884;28;19967;-71
2022/07/15 00:32:53;;;;;;;;;;;12.70;99.90;;;;;;5017557;28;19921;-72
2022/07/15 00:35:18;;;;;;;;;;;12.70;99.90;;;;;;5020716;28;20384;-71
2022/07/15 00:37:44;;;;;;;;;;;12.60;99.90;;;;;;5017049;28;19980;-71
2022/07/15 00:40:09;;;;;;;;;;;12.70;99.90;;;;;;5014181;28;19917;-72
2022/07/15 00:42:44;;;;;;;;;;;12.70;99.90;;;;;;5019251;28;19920;-71
2022/07/15 00:45:11;;;;;;;;;;;12.70;99.90;;;;;;5018903;28;19925;-72
2022/07/15 00:47:36;;;;;;;;;;;12.70;99.90;;;;;;4987798;28;19923;-71
2022/07/15 00:50:02;;;;;;;;;;;12.70;99.90;;;;;;5015234;28;20011;-72
2022/07/15 00:52:28;;;;;;;;;;;12.80;99.90;;;;;;5019871;28;19921;-72
2022/07/15 00:54:57;;;;;;;;;;;12.80;99.90;;;;;;5014226;28;20011;-72
2022/07/15 00:57:24;;;;;;;;;;;12.80;99.90;;;;;;5016155;28;19917;-72
2022/07/15 00:59:50;;;;;;;;;;;12.90;99.90;;;;;;5027559;28;19940;-72
2022/07/15 01:02:15;;;;;;;;;;;12.90;99.90;;;;;;5015468;28;20375;-72
2022/07/15 01:04:41;;;;;;;;;;;12.90;99.90;;;;;;5020157;28;19921;-72
2022/07/15 01:07:07;;;;;;;;;;;13.00;99.90;;;;;;5018489;28;19936;-72
2022/07/15 01:09:32;;;;;;;;;;;13.00;99.90;;;;;;5015577;28;20372;-72
2022/07/15 01:11:58;;;;;;;;;;;13.00;99.90;;;;;;4998672;28;19917;-72
2022/07/15 01:14:24;;;;;;;;;;;13.00;99.90;;;;;;5016622;28;19921;-72
2022/07/15 01:16:49;;;;;;;;;;;13.10;99.90;;;;;;5012231;28;19916;-72
2022/07/15 01:19:15;;;;;;;;;;;13.10;99.90;;;;;;5013384;28;19921;-72
2022/07/15 01:21:40;;;;;;;;;;;13.10;99.90;;;;;;5011187;28;19917;-72
2022/07/15 01:24:06;;;;;;;;;;;13.20;99.90;;;;;;5012688;28;19923;-72
2022/07/15 01:26:32;;;;;;;;;;;13.10;99.90;;;;;;5013267;28;19932;-71
2022/07/15 01:28:57;;;;;;;;;;;13.20;99.90;;;;;;5015762;28;19924;-72
2022/07/15 01:31:23;;;;;;;;;;;13.20;99.90;;;;;;5024836;28;19945;-72
2022/07/15 01:33:48;;;;;;;;;;;13.30;99.90;;;;;;5021289;28;19994;-72
2022/07/15 01:36:14;;;;;;;;;;;13.30;99.90;;;;;;5019079;28;19917;-72
2022/07/15 01:38:39;;;;;;;;;;;13.30;99.90;;;;;;5020930;28;20288;-72
2022/07/15 01:41:05;;;;;;;;;;;13.40;99.90;;;;;;5013708;28;19956;-73
2022/07/15 01:43:31;;;;;;;;;;;13.40;99.90;;;;;;5015460;28;19925;-71
2022/07/15 01:45:56;;;;;;;;;;;13.50;99.90;;;;;;5011155;28;19928;-72
2022/07/15 01:51:06;;;;;;;;;;;13.50;99.90;;;;;;5015481;28;19928;-72
2022/07/15 01:53:33;;;;;;;;;;;13.50;99.90;;;;;;5020025;28;20299;-73
2022/07/15 01:55:58;;;;;;;;;;;13.50;99.90;;;;;;5012076;28;19936;-72
2022/07/15 01:58:24;;;;;;;;;;;13.50;99.90;;;;;;5014318;28;19925;-73
2022/07/15 02:00:50;;;;;;;;;;;13.50;99.90;;;;;;5021243;28;19968;-73
2022/07/15 02:03:16;;;;;;;;;;;13.60;99.90;;;;;;5018289;28;19956;-73
2022/07/15 02:05:41;;;;;;;;;;;13.60;99.90;;;;;;5019848;28;19920;-73
2022/07/15 02:08:07;;;;;;;;;;;13.70;99.90;;;;;;4999562;28;19932;-73
2022/07/15 02:10:42;;;;;;;;;;;13.60;99.90;;;;;;5016322;28;19945;-73
2022/07/15 02:13:11;;;;;;;;;;;13.60;99.90;;;;;;4998143;28;19944;-73
2022/07/15 02:15:37;;;;;;;;;;;13.60;99.90;;;;;;5004980;28;19925;-72
2022/07/15 02:18:03;;;;;;;;;;;13.60;99.90;;;;;;5013357;28;19917;-72
2022/07/15 02:20:30;;;;;;;;;;;13.60;99.90;;;;;;5012610;28;20458;-73
2022/07/15 02:22:57;;;;;;;;;;;13.60;99.90;;;;;;5011570;28;20041;-72
2022/07/15 02:25:25;;;;;;;;;;;13.50;99.90;;;;;;5020572;28;19917;-73
2022/07/15 02:27:56;;;;;;;;;;;13.50;99.90;;;;;;5015238;28;19917;-73
2022/07/15 02:30:32;;;;;;;;;;;13.50;99.90;;;;;;5006146;28;20958;-73
2022/07/15 02:32:58;;;;;;;;;;;13.50;99.90;;;;;;5018551;28;19917;-72
2022/07/15 02:35:24;;;;;;;;;;;13.40;99.90;;;;;;5013084;28;19928;-73
2022/07/15 02:37:49;;;;;;;;;;;13.40;99.90;;;;;;5011134;28;19916;-74
2022/07/15 02:40:15;;;;;;;;;;;13.40;99.90;;;;;;5017833;28;19932;-73
2022/07/15 02:42:46;;;;;;;;;;;13.40;99.90;;;;;;5006653;28;19970;-74
2022/07/15 02:45:12;;;;;;;;;;;13.30;99.90;;;;;;5012644;28;20088;-73
2022/07/15 02:47:37;;;;;;;;;;;13.30;99.90;;;;;;5023707;28;20406;-73
2022/07/15 02:50:03;;;;;;;;;;;13.20;99.90;;;;;;5015125;28;19917;-73
2022/07/15 02:52:29;;;;;;;;;;;13.20;99.90;;;;;;5015771;28;19917;-73
2022/07/15 02:54:54;;;;;;;;;;;13.20;99.90;;;;;;5011111;28;19963;-73
2022/07/15 02:57:20;;;;;;;;;;;13.10;99.90;;;;;;5010380;28;20171;-73
2022/07/15 02:59:45;;;;;;;;;;;13.10;99.90;;;;;;5001108;28;19941;-73
2022/07/15 03:02:11;;;;;;;;;;;13.40;99.90;;;;;;5014256;28;19967;-73
2022/07/15 03:04:37;;;;;;;;;;;13.00;99.90;;;;;;5026526;28;19925;-73
2022/07/15 03:07:03;;;;;;;;;;;12.90;99.90;;;;;;5019553;28;19916;-73
2022/07/15 03:09:29;;;;;;;;;;;12.80;99.90;;;;;;4994236;28;20824;-73
2022/07/15 03:11:55;;;;;;;;;;;12.80;99.90;;;;;;5020725;28;20007;-73
2022/07/15 03:14:20;;;;;;;;;;;12.80;99.90;;;;;;5015277;28;19921;-73
2022/07/15 03:16:46;;;;;;;;;;;12.70;99.90;;;;;;5025082;28;20008;-73
2022/07/15 03:19:12;;;;;;;;;;;12.70;99.90;;;;;;5015853;28;20299;-73
2022/07/15 03:21:37;;;;;;;;;;;12.70;99.90;;;;;;5002860;28;19928;-73
2022/07/15 03:24:03;;;;;;;;;;;12.70;99.90;;;;;;5016341;28;19917;-73
2022/07/15 03:26:29;;;;;;;;;;;12.70;99.90;;;;;;4999375;28;19924;-73
2022/07/15 03:28:54;;;;;;;;;;;12.70;99.90;;;;;;5020050;28;19940;-73
2022/07/15 03:31:20;;;;;;;;;;;12.70;99.90;;;;;;5012993;28;19924;-73
2022/07/15 03:33:46;;;;;;;;;;;12.60;99.90;;;;;;5012377;28;19925;-72
2022/07/15 03:36:12;;;;;;;;;;;12.60;99.90;;;;;;5007851;28;19940;-72
2022/07/15 03:38:37;;;;;;;;;;;13.40;99.90;;;;;;5021510;28;19940;-72
2022/07/15 03:41:03;;;;;;;;;;;12.60;99.90;;;;;;5015911;28;19939;-72
2022/07/15 03:43:30;;;;;;;;;;;12.60;99.90;;;;;;5023135;28;20011;-72
2022/07/15 03:45:56;;;;;;;;;;;12.50;99.90;;;;;;5023499;28;19932;-73
2022/07/15 03:48:21;;;;;;;;;;;12.50;99.90;;;;;;5010402;28;19921;-73
2022/07/15 03:50:47;;;;;;;;;;;12.40;99.90;;;;;;5011848;28;19975;-73
2022/07/15 03:53:13;;;;;;;;;;;12.40;99.90;;;;;;5006088;28;20060;-73
2022/07/15 03:55:38;;;;;;;;;;;12.40;99.90;;;;;;5007238;28;19925;-73
2022/07/15 03:58:04;;;;;;;;;;;12.40;99.90;;;;;;5013461;28;20342;-72
2022/07/15 04:00:30;;;;;;;;;;;12.40;99.90;;;;;;5021849;28;19925;-72
2022/07/15 04:02:56;;;;;;;;;;;12.30;99.90;;;;;;5011758;28;20805;-72
2022/07/15 04:05:21;;;;;;;;;;;12.30;99.90;;;;;;5016699;28;20374;-73
2022/07/15 04:07:47;;;;;;;;;;;12.30;99.90;;;;;;5013841;28;19925;-73
2022/07/15 04:10:13;;;;;;;;;;;12.30;99.90;;;;;;5031258;28;20331;-73
2022/07/15 04:12:39;;;;;;;;;;;12.30;99.90;;;;;;5020571;28;19924;-73
2022/07/15 04:15:04;;;;;;;;;;;12.30;99.90;;;;;;5005419;28;20478;-73
2022/07/15 04:17:30;;;;;;;;;;;12.20;99.90;;;;;;5012318;28;20298;-73
2022/07/15 04:19:55;;;;;;;;;;;12.20;99.90;;;;;;5023774;28;20346;-73
2022/07/15 04:22:21;;;;;;;;;;;12.20;99.90;;;;;;5023971;28;19940;-73
2022/07/15 04:24:46;;;;;;;;;;;12.30;99.90;;;;;;5015118;28;19960;-73
2022/07/15 04:27:12;;;;;;;;;;;12.20;99.90;;;;;;5016127;28;20375;-73
2022/07/15 04:29:38;;;;;;;;;;;12.30;99.90;;;;;;5014471;28;20378;-73
2022/07/15 04:32:04;;;;;;;;;;;12.20;99.90;;;;;;5009954;28;20311;-73
2022/07/15 04:34:30;;;;;;;;;;;12.30;99.90;;;;;;5009012;28;19967;-73
2022/07/15 04:36:55;;;;;;;;;;;12.30;99.90;;;;;;5021242;28;20374;-73
2022/07/15 04:39:21;;;;;;;;;;;12.30;99.90;;;;;;5014551;28;20347;-73
2022/07/15 04:41:46;;;;;;;;;;;12.40;99.90;;;;;;5010493;28;20508;-73
2022/07/15 04:44:12;;;;;;;;;;;12.40;99.90;;;;;;5015282;28;19921;-73
2022/07/15 04:46:38;;;;;;;;;;;12.30;99.90;;;;;;5015838;28;20311;-73
2022/07/15 04:51:47;;;;;;;;;;;12.30;99.90;;;;;;5011315;28;19921;-73
2022/07/15 04:54:13;;;;;;;;;;;12.40;99.90;;;;;;5026677;28;20008;-73
2022/07/15 04:56:38;;;;;;;;;;;12.40;99.90;;;;;;5012293;28;19921;-73
2022/07/15 04:59:04;;;;;;;;;;;12.40;99.90;;;;;;5013689;28;19918;-73
2022/07/15 05:01:30;;;;;;;;;;;12.50;99.90;;;;;;5011880;28;20852;-73
2022/07/15 05:03:56;;;;;;;;;;;12.50;99.90;;;;;;5013184;28;19917;-73
2022/07/15 05:06:22;;;;;;;;;;;12.60;99.90;;;;;;5013927;28;19975;-73
2022/07/15 05:08:47;;;;;;;;;;;12.50;99.90;;;;;;5016210;28;20069;-73
2022/07/15 05:11:13;;;;;;;;;;;12.60;99.90;;;;;;5020363;28;19921;-73
2022/07/15 05:13:39;;;;;;;;;;;12.60;99.90;;;;;;5010652;28;21229;-73
2022/07/15 05:16:05;;;;;;;;;;;12.70;99.90;;;;;;5017207;28;20015;-73
2022/07/15 05:18:30;;;;;;;;;;;12.80;99.90;;;;;;5011027;28;19917;-73
2022/07/15 05:20:56;;;;;;;;;;;12.80;99.90;;;;;;5014132;28;19925;-73
2022/07/15 05:23:21;;;;;;;;;;;12.90;99.90;;;;;;5011172;28;19917;-73
2022/07/15 05:25:47;;;;;;;;;;;13.00;99.90;;;;;;5016254;28;19925;-73
2022/07/15 05:28:12;;;;;;;;;;;13.10;99.90;;;;;;5010401;28;19920;-73
2022/07/15 05:30:38;;;;;;;;;;;13.20;99.90;;;;;;5014842;28;20399;-73
2022/07/15 05:33:04;;;;;;;;;;;13.30;99.90;;;;;;5011164;28;19971;-73
2022/07/15 05:35:30;;;;;;;;;;;13.40;99.90;;;;;;5026271;28;19929;-72
2022/07/15 05:37:55;;;;;;;;;;;13.50;99.90;;;;;;5024188;28;20004;-73
2022/07/15 05:40:21;;;;;;;;;;;13.60;99.90;;;;;;4994443;28;19917;-73
2022/07/15 05:42:46;;;;;;;;;;;13.70;99.90;;;;;;5010047;28;20299;-73
2022/07/15 05:45:12;;;;;;;;;;;13.70;99.90;;;;;;5014496;28;20359;-72
2022/07/15 05:47:38;;;;;;;;;;;13.70;99.90;;;;;;5012244;28;20287;-73
2022/07/15 05:50:04;;;;;;;;;;;13.80;99.90;;;;;;4994627;28;19979;-73
2022/07/15 05:52:29;;;;;;;;;;;13.90;99.90;;;;;;5006449;28;19917;-73
2022/07/15 05:54:55;;;;;;;;;;;14.00;99.90;;;;;;5010901;28;20310;-73
2022/07/15 05:57:20;;;;;;;;;;;14.00;99.90;;;;;;5019551;28;20294;-73
2022/07/15 05:59:46;;;;;;;;;;;14.20;99.90;;;;;;5008417;28;19925;-73
2022/07/15 06:02:13;;;;;;;;;;;14.90;99.90;;;;;;5012779;28;19924;-73
2022/07/15 06:04:39;;;;;;;;;;;14.20;99.90;;;;;;4997098;28;19925;-73
2022/07/15 06:07:05;;;;;;;;;;;14.40;99.90;;;;;;5022688;28;19928;-73
2022/07/15 06:09:31;;;;;;;;;;;15.20;99.90;;;;;;5024289;28;19920;-73
2022/07/15 06:11:58;;;;;;;;;;;15.40;99.90;;;;;;5014923;28;19925;-73
2022/07/15 06:14:24;;;;;;;;;;;14.50;99.90;;;;;;5008050;28;19929;-73
2022/07/15 06:16:49;;;;;;;;;;;15.00;99.90;;;;;;5010815;28;19925;-73
2022/07/15 06:19:15;;;;;;;;;;;14.50;99.90;;;;;;5006691;28;19963;-73
2022/07/15 06:21:40;;;;;;;;;;;14.60;99.90;;;;;;5020800;28;20473;-73
2022/07/15 06:24:06;;;;;;;;;;;14.60;99.90;;;;;;5011558;28;19925;-73
2022/07/15 06:26:31;;;;;;;;;;;14.60;99.90;;;;;;5009936;28;19928;-73
2022/07/15 06:28:57;;;;;;;;;;;14.70;99.90;;;;;;5009015;28;19932;-73
2022/07/15 06:31:23;;;;;;;;;;;14.70;99.90;;;;;;4994215;28;20558;-73
2022/07/15 06:33:48;;;;;;;;;;;14.80;99.90;;;;;;4991750;28;20327;-73
2022/07/15 06:36:14;;;;;;;;;;;14.90;99.90;;;;;;4994911;28;21331;-73
2022/07/15 06:38:39;;;;;;;;;;;15.00;99.90;;;;;;5014166;28;19960;-73
2022/07/15 06:41:05;;;;;;;;;;;15.10;99.90;;;;;;4993660;28;19963;-73
2022/07/15 06:43:30;;;;;;;;;;;15.20;99.90;;;;;;5008629;28;19979;-73
2022/07/15 06:45:56;;;;;;;;;;;15.30;99.90;;;;;;4994832;28;20299;-73
2022/07/15 06:48:21;;;;;;;;;;;15.50;99.90;;;;;;4994418;28;20430;-73
2022/07/15 06:50:47;;;;;;;;;;;15.60;99.90;;;;;;4995762;28;20560;-73
2022/07/15 06:53:12;;;;;;;;;;;15.70;99.90;;;;;;4984526;28;19929;-74
2022/07/15 06:55:38;;;;;;;;;;;15.80;99.90;;;;;;4998439;28;20368;-73
2022/07/15 06:58:03;;;;;;;;;;;15.90;99.90;;;;;;5011994;28;19917;-74
2022/07/15 07:00:29;;;;;;;;;;;16.00;99.90;;;;;;5008237;28;20383;-73
2022/07/15 07:02:55;;;;;;;;;;;16.10;99.90;;;;;;4998880;28;19922;-73
2022/07/15 07:05:20;;;;;;;;;;;16.30;99.90;;;;;;4993141;28;19925;-73
2022/07/15 07:07:46;;;;;;;;;;;16.40;99.90;;;;;;5011410;28;19921;-73
2022/07/15 07:10:12;;;;;;;;;;;16.50;99.90;;;;;;4994138;28;19921;-73
2022/07/15 07:12:38;;;;;;;;;;;16.70;99.90;;;;;;4995136;28;19928;-73
2022/07/15 07:15:06;;;;;;;;;;;16.80;99.90;;;;;;4994258;28;19925;-73
2022/07/15 07:17:31;;;;;;;;;;;16.90;99.90;;;;;;4996891;28;19920;-73
2022/07/15 07:19:57;;;;;;;;;;;17.10;99.90;;;;;;4991037;28;20374;-73
2022/07/15 07:22:22;;;;;;;;;;;17.20;99.90;;;;;;4996224;28;19967;-73
2022/07/15 07:24:48;;;;;;;;;;;17.30;99.90;;;;;;4991799;28;19932;-73
2022/07/15 07:27:14;;;;;;;;;;;17.50;99.90;;;;;;4993069;28;19921;-73
2022/07/15 07:29:39;;;;;;;;;;;17.60;99.90;;;;;;4989101;28;19925;-73
2022/07/15 07:32:05;;;;;;;;;;;17.70;99.90;;;;;;4990802;28;19959;-73
2022/07/15 07:34:30;;;;;;;;;;;17.80;99.90;;;;;;4996573;28;19922;-72
2022/07/15 07:36:56;;;;;;;;;;;17.90;99.90;;;;;;5013003;28;20568;-73
2022/07/15 07:39:22;;;;;;;;;;;18.00;99.90;;;;;;4996777;28;20679;-73
2022/07/15 07:41:52;;;;;;;;;;;18.20;99.90;;;;;;4997094;28;19921;-73
2022/07/15 07:44:18;;;;;;;;;;;18.20;99.90;;;;;;5013182;28;19944;-73
2022/07/15 07:46:44;;;;;;;;;;;18.40;99.90;;;;;;5001563;28;19925;-73
2022/07/15 07:49:12;;;;;;;;;;;18.60;99.90;;;;;;5004745;28;19925;-73
2022/07/15 07:51:40;;;;;;;;;;;18.70;99.90;;;;;;5017144;28;20039;-73
2022/07/15 07:54:06;;;;;;;;;;;18.50;99.90;;;;;;5022490;28;19928;-73
2022/07/15 07:56:32;;;;;;;;;;;18.30;99.90;;;;;;5022315;28;19956;-73
2022/07/15 07:58:57;;;;;;;;;;;18.30;99.90;;;;;;5004796;28;19920;-73
2022/07/15 08:01:23;;;;;;;;;;;18.40;99.90;;;;;;5003049;28;20407;-73
2022/07/15 08:03:50;;;;;;;;;;;18.50;99.90;;;;;;5003493;28;20403;-73
2022/07/15 08:06:16;;;;;;;;;;;18.70;99.90;;;;;;5007030;28;19921;-73
2022/07/15 08:08:41;;;;;;;;;;;18.80;99.90;;;;;;5008725;28;19974;-73
2022/07/15 08:11:07;;;;;;;;;;;18.60;99.90;;;;;;5016412;28;19925;-72
2022/07/15 08:13:33;;;;;;;;;;;18.60;99.90;;;;;;5009092;28;20343;-73
2022/07/15 08:15:58;;;;;;;;;;;18.70;99.90;;;;;;5013669;28;20326;-73
2022/07/15 08:18:24;;;;;;;;;;;19.00;99.90;;;;;;5008143;28;20323;-73
2022/07/15 08:20:51;;;;;;;;;;;19.00;99.90;;;;;;5026973;28;19925;-73
2022/07/15 08:23:20;;;;;;;;;;;19.40;99.90;;;;;;5013470;28;19921;-72
2022/07/15 08:25:46;;;;;;;;;;;19.50;99.90;;;;;;5011216;28;20016;-73
2022/07/15 08:28:12;;;;;;;;;;;19.60;99.90;;;;;;5018631;28;19917;-73
2022/07/15 08:30:38;;;;;;;;;;;19.50;99.90;;;;;;5013719;28;19924;-73
2022/07/15 08:33:03;;;;;;;;;;;19.50;99.90;;;;;;5012852;28;19917;-73
2022/07/15 08:35:29;;;;;;;;;;;19.60;99.90;;;;;;5001827;28;19925;-73
2022/07/15 08:37:55;;;;;;;;;;;19.70;99.90;;;;;;5016249;28;20507;-73
2022/07/15 08:40:21;;;;;;;;;;;19.90;99.90;;;;;;5008172;28;19918;-73
2022/07/15 08:42:47;;;;;;;;;;;20.00;98.20;;;;;;5017370;28;19917;-73
2022/07/15 08:45:15;;;;;;;;;;;19.70;98.80;;;;;;5020999;28;19984;-73
2022/07/15 08:47:41;;;;;;;;;;;19.40;99.90;;;;;;5011962;28;19921;-73
2022/07/15 08:50:12;;;;;;;;;;;19.50;99.90;;;;;;5011319;28;19928;-73
2022/07/15 08:52:38;;;;;;;;;;;19.70;99.90;;;;;;5001484;28;19929;-73
2022/07/15 08:55:05;;;;;;;;;;;19.70;99.90;;;;;;5036126;28;20055;-72
2022/07/15 08:57:30;;;;;;;;;;;19.90;99.90;;;;;;5018124;28;20070;-73
2022/07/15 08:59:56;;;;;;;;;;;20.00;99.90;;;;;;5021802;28;20420;-74
2022/07/15 09:02:21;;;;;;;;;;;20.30;99.90;;;;;;5038629;28;19921;-74
2022/07/15 09:05:06;;;;;;;;;;;20.60;99.20;;;;;;5010991;28;20467;-74
2022/07/15 09:07:48;;;;;;;;;;;20.90;99.10;;;;;;5009961;28;19917;-74
2022/07/15 09:10:14;;;;;;;;;;;20.70;97.80;;;;;;5015528;28;19925;-75
2022/07/15 09:12:41;;;;;;;;;;;20.50;98.00;;;;;;5016057;28;19932;-74
2022/07/15 09:15:07;;;;;;;;;;;20.60;97.20;;;;;;5013857;28;19936;-74
2022/07/15 09:17:33;;;;;;;;;;;20.10;98.30;;;;;;5011865;28;19921;-74
2022/07/15 09:20:05;;;;;;;;;;;20.10;99.20;;;;;;5013920;28;20426;-75
2022/07/15 09:22:51;;;;;;;;;;;20.00;99.90;;;;;;5030943;28;19917;-74
2022/07/15 09:25:17;;;;;;;;;;;20.10;99.80;;;;;;5011054;28;19921;-75
2022/07/15 09:27:43;;;;;;;;;;;20.40;98.60;;;;;;5027528;28;19928;-75
2022/07/15 09:33:34;;;;;;;;;;;20.90;95.30;;;;;;5009990;28;19921;-74
2022/07/15 09:36:20;;;;;;;;;;;21.20;94.00;;;;;;5010154;28;19972;-74
2022/07/15 09:38:49;;;;;;;;;;;21.40;94.30;;;;;;5020351;28;20384;-74
2022/07/15 09:41:26;;;;;;;;;;;21.30;92.00;;;;;;5003514;28;19917;-74
2022/07/15 09:43:57;;;;;;;;;;;21.10;90.80;;;;;;5002983;28;19924;-74
2022/07/15 09:46:24;;;;;;;;;;;21.00;93.40;;;;;;5008086;28;20007;-74
2022/07/15 09:48:50;;;;;;;;;;;21.00;91.10;;;;;;5013198;28;19929;-74
2022/07/15 09:51:16;;;;;;;;;;;20.90;92.30;;;;;;5007193;28;19917;-74
2022/07/15 09:53:43;;;;;;;;;;;20.90;92.80;;;;;;5034586;28;19921;-74
2022/07/15 09:56:10;;;;;;;;;;;20.70;94.00;;;;;;5013719;28;20031;-74
2022/07/15 09:58:37;;;;;;;;;;;20.70;96.60;;;;;;5009421;28;19925;-74
2022/07/15 10:01:03;;;;;;;;;;;20.80;94.90;;;;;;5013317;28;19916;-74
2022/07/15 10:03:28;;;;;;;;;;;21.00;95.30;;;;;;5007227;28;19940;-74
2022/07/15 10:05:54;;;;;;;;;;;21.30;95.70;;;;;;5020239;28;19939;-74
2022/07/15 10:08:20;;;;;;;;;;;21.50;91.70;;;;;;5025826;28;19917;-75
2022/07/15 10:10:48;;;;;;;;;;;21.50;93.00;;;;;;5007564;28;19964;-75
2022/07/15 10:13:29;;;;;;;;;;;21.70;97.00;;;;;;4998969;28;19917;-74
2022/07/15 10:15:58;;;;;;;;;;;21.90;91.70;;;;;;5019447;28;19968;-74
2022/07/15 10:18:29;;;;;;;;;;;22.20;91.00;;;;;;5011694;28;19927;-74
2022/07/15 10:21:14;;;;;;;;;;;22.30;86.10;;;;;;5014788;28;19986;-74
2022/07/15 10:23:45;;;;;;;;;;;22.20;88.10;;;;;;5002250;28;19980;-74
2022/07/15 10:26:27;;;;;;;;;;;22.40;90.80;;;;;;5013017;28;20019;-74
2022/07/15 10:28:58;;;;;;;;;;;22.50;89.40;;;;;;5012976;28;19939;-74
2022/07/15 10:31:25;;;;;;;;;;;22.70;90.80;;;;;;5020438;28;20295;-74
2022/07/15 10:34:03;;;;;;;;;;;22.70;90.10;;;;;;5016621;28;19966;-74
2022/07/15 10:36:38;;;;;;;;;;;22.60;88.00;;;;;;5020922;28;19917;-73
2022/07/15 10:39:05;;;;;;;;;;;22.30;88.50;;;;;;5016185;28;19917;-74
2022/07/15 10:41:49;;;;;;;;;;;22.10;86.80;;;;;;5014566;28;19917;-74
2022/07/15 10:44:14;;;;;;;;;;;21.60;90.10;;;;;;5012523;28;19939;-74
2022/07/15 10:46:40;;;;;;;;;;;21.30;90.80;;;;;;5030091;28;19917;-74
2022/07/15 10:49:05;;;;;;;;;;;21.00;92.20;;;;;;5017748;28;19916;-72
2022/07/15 10:51:37;;;;;;;;;;;20.90;93.40;;;;;;5000453;28;19924;-75
2022/07/15 10:54:05;;;;;;;;;;;21.00;96.00;;;;;;5017163;28;19925;-75
2022/07/15 10:56:35;;;;;;;;;;;21.30;94.40;;;;;;5005566;28;20292;-74
2022/07/15 10:59:07;;;;;;;;;;;21.60;93.70;;;;;;4990280;28;20366;-74
2022/07/15 11:01:33;;;;;;;;;;;21.80;93.80;;;;;;5010043;28;19925;-73
2022/07/15 11:04:17;;;;;;;;;;;21.80;91.20;;;;;;5010432;28;20757;-74
2022/07/15 11:07:01;;;;;;;;;;;22.10;92.10;;;;;;5008242;28;19917;-74
2022/07/15 11:09:46;;;;;;;;;;;22.40;94.40;;;;;;5013276;28;19925;-74
2022/07/15 11:12:15;;;;;;;;;;;22.50;87.90;;;;;;5022742;28;19925;-74
2022/07/15 11:14:48;;;;;;;;;;;22.40;90.30;;;;;;5026292;28;19975;-75
2022/07/15 11:17:16;;;;;;;;;;;22.60;91.30;;;;;;5015380;28;19924;-74
2022/07/15 11:19:45;;;;;;;;;;;22.50;89.70;;;;;;5000601;28;19960;-74
2022/07/15 11:22:10;;;;;;;;;;;22.40;89.70;;;;;;5013837;28;20000;-74
2022/07/15 11:24:36;;;;;;;;;;;22.10;89.40;;;;;;5010530;28;20001;-74
2022/07/15 11:27:02;;;;;;;;;;;21.90;90.00;;;;;;5031475;28;19922;-74
2022/07/15 11:29:43;;;;;;;;;;;21.40;91.90;;;;;;5036656;28;19917;-74
2022/07/15 11:32:09;;;;;;;;;;;21.70;92.90;;;;;;5017591;28;19921;-74
2022/07/15 11:34:39;;;;;;;;;;;21.60;92.50;;;;;;5018250;28;20402;-74
2022/07/15 11:37:05;;;;;;;;;;;21.60;94.10;;;;;;5021008;28;19921;-75
2022/07/15 11:39:31;;;;;;;;;;;21.50;93.40;;;;;;5034817;28;19970;-74
2022/07/15 11:44:45;;;;;;;;;;;21.60;93.90;;;;;;5014771;28;19925;-74
2022/07/15 11:47:11;;;;;;;;;;;21.80;94.30;;;;;;5019093;28;19931;-74
2022/07/15 11:49:42;;;;;;;;;;;22.20;92.30;;;;;;5001668;28;19920;-74
2022/07/15 11:52:09;;;;;;;;;;;22.30;91.00;;;;;;5010978;28;19924;-74
2022/07/15 11:54:36;;;;;;;;;;;22.30;89.50;;;;;;5033173;28;20298;-74
2022/07/15 11:57:02;;;;;;;;;;;22.00;88.70;;;;;;5022909;28;19967;-74
2022/07/15 11:59:28;;;;;;;;;;;22.00;90.20;;;;;;5011528;28;20003;-74
2022/07/15 12:02:00;;;;;;;;;;;21.80;89.20;;;;;;5014396;28;20027;-74
2022/07/15 12:04:26;;;;;;;;;;;21.50;91.10;;;;;;5030018;28;19920;-74
2022/07/15 12:06:51;;;;;;;;;;;21.50;92.30;;;;;;4998028;28;19924;-73
2022/07/15 12:09:17;;;;;;;;;;;21.40;90.90;;;;;;5007285;28;19925;-73
2022/07/15 12:11:43;;;;;;;;;;;21.40;92.70;;;;;;5013723;28;19943;-75
2022/07/15 12:14:12;;;;;;;;;;;21.40;92.20;;;;;;5016691;28;19917;-79
2022/07/15 12:16:42;;;;;;;;;;;21.60;95.40;;;;;;5008590;28;19921;-74
2022/07/15 12:19:08;;;;;;;;;;;21.80;92.90;;;;;;4993578;28;20443;-75
2022/07/15 12:21:35;;;;;;;;;;;21.70;95.00;;;;;;5021033;28;20024;-74
2022/07/15 12:24:04;;;;;;;;;;;21.70;93.70;;;;;;5019064;28;19917;-75
2022/07/15 12:26:29;;;;;;;;;;;21.60;92.70;;;;;;5023170;28;19939;-74
2022/07/15 12:28:56;;;;;;;;;;;21.50;93.10;;;;;;5021135;28;20542;-75
2022/07/15 12:31:26;;;;;;;;;;;21.60;92.20;;;;;;5018798;28;19921;-74
2022/07/15 12:33:52;;;;;;;;;;;21.60;92.90;;;;;;5011498;28;19924;-75
2022/07/15 12:36:18;;;;;;;;;;;22.20;93.60;;;;;;5019993;28;19921;-74
2022/07/15 12:38:44;;;;;;;;;;;22.30;94.50;;;;;;5012949;28;19921;-74
2022/07/15 12:41:22;;;;;;;;;;;22.50;92.60;;;;;;5025147;28;19970;-75
2022/07/15 12:43:47;;;;;;;;;;;22.50;87.10;;;;;;5013817;28;20157;-74
2022/07/15 12:46:13;;;;;;;;;;;22.10;85.80;;;;;;5031734;28;20057;-74
2022/07/15 12:48:43;;;;;;;;;;;21.80;91.00;;;;;;5010063;28;19925;-74
2022/07/15 12:51:08;;;;;;;;;;;21.80;92.20;;;;;;5026002;28;19928;-74
2022/07/15 12:53:37;;;;;;;;;;;22.00;92.50;;;;;;5015926;28;19917;-74
2022/07/15 12:56:03;;;;;;;;;;;22.20;92.10;;;;;;5012344;28;19917;-74
2022/07/15 12:58:30;;;;;;;;;;;22.40;88.20;;;;;;5027663;28;19917;-73
2022/07/15 13:01:10;;;;;;;;;;;22.30;90.60;;;;;;5013632;28;19917;-74
2022/07/15 13:03:36;;;;;;;;;;;22.30;90.70;;;;;;5016822;28;19967;-74
2022/07/15 13:06:01;;;;;;;;;;;22.30;90.00;;;;;;5015069;28;20004;-74
2022/07/15 13:08:28;;;;;;;;;;;22.30;90.00;;;;;;4996331;28;20020;-74
2022/07/15 13:10:55;;;;;;;;;;;22.40;91.00;;;;;;5015868;28;19925;-74
2022/07/15 13:13:22;;;;;;;;;;;22.50;91.20;;;;;;5018632;28;19922;-74
2022/07/15 13:15:48;;;;;;;;;;;22.60;91.00;;;;;;5016994;28;19923;-74
2022/07/15 13:18:15;;;;;;;;;;;22.60;83.40;;;;;;5033874;28;19921;-73
2022/07/15 13:20:41;;;;;;;;;;;22.50;86.90;;;;;;5015326;28;19936;-73
2022/07/15 13:23:07;;;;;;;;;;;22.40;87.70;;;;;;5019293;28;19924;-74
2022/07/15 13:25:36;;;;;;;;;;;22.30;85.10;;;;;;5018010;28;19963;-74
2022/07/15 13:28:02;;;;;;;;;;;22.30;83.30;;;;;;5003352;28;19952;-74
2022/07/15 13:30:28;;;;;;;;;;;22.20;87.70;;;;;;5027134;28;19921;-73
2022/07/15 13:32:53;;;;;;;;;;;22.30;84.80;;;;;;5022816;28;19935;-74
2022/07/15 13:35:19;;;;;;;;;;;22.20;88.10;;;;;;5018620;28;20057;-74
2022/07/15 13:37:44;;;;;;;;;;;22.30;88.70;;;;;;4997136;28;20307;-74
2022/07/15 13:40:10;;;;;;;;;;;22.20;86.00;;;;;;5027801;28;19960;-74
2022/07/15 13:42:38;;;;;;;;;;;22.30;90.70;;;;;;5012857;28;19936;-73
2022/07/15 13:45:03;;;;;;;;;;;22.30;89.40;;;;;;5024410;28;19971;-74
2022/07/15 13:47:30;;;;;;;;;;;22.20;88.50;;;;;;5014905;28;19922;-74
2022/07/15 13:52:41;;;;;;;;;;;22.30;89.80;;;;;;5014970;28;19929;-73
2022/07/15 13:55:07;;;;;;;;;;;22.30;89.00;;;;;;5018885;28;19921;-73
2022/07/15 13:57:32;;;;;;;;;;;22.70;90.90;;;;;;5017475;28;20375;-73
2022/07/15 13:59:58;;;;;;;;;;;23.20;90.20;;;;;;5016703;28;19996;-74
2022/07/15 14:02:23;;;;;;;;;;;23.50;86.40;;;;;;5011331;28;20035;-74
2022/07/15 14:04:49;;;;;;;;;;;23.40;80.80;;;;;;5000677;28;19927;-74
2022/07/15 14:07:14;;;;;;;;;;;23.30;80.80;;;;;;5012072;28;20406;-73
2022/07/15 14:09:40;;;;;;;;;;;23.30;82.20;;;;;;5015953;28;20418;-74
2022/07/15 14:12:05;;;;;;;;;;;23.10;83.80;;;;;;5024300;28;20451;-74
2022/07/15 14:14:31;;;;;;;;;;;22.80;84.10;;;;;;5011132;28;20387;-74
2022/07/15 14:16:58;;;;;;;;;;;22.70;86.20;;;;;;5025083;28;20431;-73
2022/07/15 14:19:23;;;;;;;;;;;22.50;84.50;;;;;;5008330;28;19917;-74
2022/07/15 14:21:49;;;;;;;;;;;22.60;87.40;;;;;;5030378;28;19939;-72
2022/07/15 14:24:14;;;;;;;;;;;22.50;87.20;;;;;;5018652;28;19917;-74
2022/07/15 14:26:40;;;;;;;;;;;23.20;89.30;;;;;;4995049;28;19921;-74
2022/07/15 14:29:06;;;;;;;;;;;22.50;89.60;;;;;;5026076;28;19925;-74